As Victoria — A8SO7 — position and weather

sailwx.info

Track history (hours):
 
Tides and Currents Weather Stations Pressure Air Temp Water Temp Dewpoint Dewpoint Depression Visibility Wind Speed Wind Dir Waves Ship Positions

As Victoria

Last reported at 2015-Apr-19 10:33 UTC. Time now 2015-Apr-19 11:03 UTC.
Position N 53°38' W 000°12'.

Length 190 m; draft 11.5 m.

MMSI: 636091769.

Date/timePositionNaut miles runAvg speedWind from/ knotsBaromVisibWave heightAir tempDewpointWater temp
2015-Apr-19 10:33N 53°38' W 000°12'0 0.0
2015-Apr-19 09:33N 53°38' W 000°12'0 0.0
2015-Apr-19 08:33N 53°38' W 000°12'0 0.0
2015-Apr-19 07:33N 53°38' W 000°12'0 0.0
2015-Apr-19 06:33N 53°38' W 000°12'0 0.0
2015-Apr-19 05:33N 53°38' W 000°12'0 0.0
2015-Apr-19 04:27N 53°38' W 000°12'0 0.0
2015-Apr-19 03:33N 53°38' W 000°12'0 0.0
2015-Apr-19 02:33N 53°38' W 000°12'0 0.0
2015-Apr-19 01:33N 53°38' W 000°12'0 0.0
2015-Apr-19 00:33N 53°38' W 000°12'0 0.0
2015-Apr-18 23:33N 53°38' W 000°12'0 0.0
2015-Apr-18 22:33N 53°38' W 000°12'0 0.0
2015-Apr-18 21:33N 53°38' W 000°12'0 0.0
2015-Apr-18 20:33N 53°38' W 000°12'0 0.0
2015-Apr-18 19:33N 53°38' W 000°12'0 0.0
2015-Apr-18 18:33N 53°38' W 000°12'0 0.2
2015-Apr-18 17:33N 53°38' W 000°12'5 5.0
2015-Apr-18 16:34N 53°37' W 000°04'8 8.3
2015-Apr-18 15:33N 53°33' E 000°09'9 9.3
2015-Apr-18 14:33N 53°39' E 000°21'4 4.0
2015-Apr-18 13:34N 53°42' E 000°24'1 1.0
2015-Apr-18 12:18N 53°44' E 000°24'0 0.2
2015-Apr-18 11:33N 53°44' E 000°24'0 0.0
2015-Apr-18 10:33N 53°44' E 000°24'0 0.0
2015-Apr-18 09:21N 53°44' E 000°24'0 0.0
2015-Apr-18 08:33N 53°44' E 000°24'0 0.0
2015-Apr-18 07:24N 53°44' E 000°24'0 0.2
2015-Apr-18 06:21N 53°44' E 000°24'0 0.1
2015-Apr-18 05:27N 53°44' E 000°24'0 0.0
2015-Apr-18 04:33N 53°44' E 000°24'0 0.0
2015-Apr-18 03:30N 53°44' E 000°24'0 0.0
2015-Apr-18 02:30N 53°44' E 000°24'0 0.0
2015-Apr-18 01:30N 53°44' E 000°24'0 0.1
2015-Apr-18 00:33N 53°44' E 000°24'0 0.2
2015-Apr-17 23:30N 53°44' E 000°24'0 0.1
2015-Apr-17 22:33N 53°44' E 000°24'0 0.0
2015-Apr-17 21:21N 53°44' E 000°24'0 0.0
2015-Apr-17 20:06N 53°44' E 000°24'0 0.0
2015-Apr-17 19:09N 53°44' E 000°24'0 0.1
2015-Apr-17 18:33N 53°44' E 000°24'0 0.2
2015-Apr-17 17:33N 53°44' E 000°24'0 0.0
2015-Apr-17 16:30N 53°44' E 000°24'0 0.0
2015-Apr-17 15:27N 53°44' E 000°24'0 0.0
2015-Apr-17 14:34N 53°44' E 000°24'0 0.0
2015-Apr-17 13:27N 53°44' E 000°24'0 0.0
2015-Apr-17 12:30N 53°44' E 000°24'0 0.1
2015-Apr-17 11:30N 53°44' E 000°24'0 0.1
2015-Apr-17 10:30N 53°44' E 000°24'0 0.0
2015-Apr-17 09:33N 53°44' E 000°24'0 0.0
2015-Apr-17 08:33N 53°44' E 000°24'0 0.0
2015-Apr-17 07:33N 53°44' E 000°24'0 0.0
2015-Apr-17 06:33N 53°44' E 000°24'0 0.2
2015-Apr-17 05:33N 53°44' E 000°24'0 0.0
2015-Apr-17 04:30N 53°44' E 000°24'0 0.0
2015-Apr-17 03:24N 53°44' E 000°24'0 0.0
2015-Apr-17 02:33N 53°44' E 000°24'0 0.0
2015-Apr-17 01:33N 53°44' E 000°24'0 0.0
2015-Apr-17 00:33N 53°44' E 000°24'0 0.1
2015-Apr-16 23:34N 53°44' E 000°24'0 0.2
2015-Apr-16 22:33N 53°44' E 000°24'0 0.0
2015-Apr-16 21:33N 53°44' E 000°24'0 0.0
2015-Apr-16 20:33N 53°44' E 000°24'0 0.0
2015-Apr-16 19:27N 53°44' E 000°24'0 0.0
2015-Apr-16 18:33N 53°44' E 000°24'0 0.1
2015-Apr-16 17:21N 53°44' E 000°24'0 0.3
2015-Apr-16 16:33N 53°44' E 000°24'0 0.0
2015-Apr-16 15:33N 53°44' E 000°24'0 0.0
2015-Apr-16 14:33N 53°44' E 000°24'0 0.0
2015-Apr-16 13:33N 53°44' E 000°24'0 0.0
2015-Apr-16 12:33N 53°44' E 000°24'0 0.1
2015-Apr-16 11:27N 53°44' E 000°24'0 0.2
2015-Apr-16 10:27N 53°44' E 000°24'0 0.0
2015-Apr-16 09:27N 53°44' E 000°24'0 0.0
2015-Apr-16 08:30N 53°44' E 000°24'0 0.0
2015-Apr-16 07:30N 53°44' E 000°24'0 0.0
2015-Apr-16 06:33N 53°44' E 000°24'0 0.0
2015-Apr-16 05:33N 53°44' E 000°24'0 0.2
2015-Apr-16 04:30N 53°44' E 000°24'0 0.1
2015-Apr-16 03:33N 53°44' E 000°24'0 0.0
2015-Apr-16 02:30N 53°44' E 000°24'0 0.0
2015-Apr-16 01:27N 53°44' E 000°24'0 0.0
2015-Apr-16 00:33N 53°44' E 000°24'0 0.0
2015-Apr-15 23:30N 53°44' E 000°24'0 0.2
2015-Apr-15 22:30N 53°44' E 000°24'0 0.1
2015-Apr-15 21:27N 53°44' E 000°24'0 0.0
2015-Apr-15 20:24N 53°44' E 000°24'0 0.0
2015-Apr-15 19:30N 53°44' E 000°24'0 0.1
2015-Apr-15 18:30N 53°44' E 000°24'0 0.0
2015-Apr-15 17:30N 53°44' E 000°24'0 0.1
2015-Apr-15 16:33N 53°44' E 000°24'0 0.1
2015-Apr-15 15:18N 53°44' E 000°24'0 0.0
2015-Apr-15 14:27N 53°44' E 000°24'0 0.0
2015-Apr-15 13:27N 53°44' E 000°24'0 0.0
2015-Apr-15 12:30N 53°44' E 000°24'0 0.0
2015-Apr-15 11:15N 53°44' E 000°24'0 0.1
2015-Apr-15 10:34N 53°44' E 000°24'0 0.2
2015-Apr-15 09:15N 53°44' E 000°24'0 0.1
2015-Apr-15 08:24N 53°44' E 000°24'0 0.0
2015-Apr-15 07:12N 53°44' E 000°24'0 0.0
2015-Apr-15 06:33N 53°44' E 000°24'0 0.0
2015-Apr-15 05:24N 53°44' E 000°24'0 0.1
2015-Apr-15 04:27N 53°44' E 000°24'0 0.1
2015-Apr-15 03:24N 53°44' E 000°24'0 0.1
2015-Apr-15 02:30N 53°44' E 000°24'0 0.0
2015-Apr-15 01:33N 53°44' E 000°24'0 0.0
2015-Apr-15 00:24N 53°44' E 000°24'0 0.0
2015-Apr-14 23:30N 53°44' E 000°24'0 0.1
2015-Apr-14 22:33N 53°44' E 000°24'0 0.2
2015-Apr-14 21:30N 53°44' E 000°24'0 0.1
2015-Apr-14 20:21N 53°44' E 000°24'0 0.0
2015-Apr-14 19:24N 53°44' E 000°24'0 0.0
2015-Apr-14 18:24N 53°44' E 000°24'0 0.0
2015-Apr-14 17:24N 53°44' E 000°24'0 0.0
2015-Apr-14 16:30N 53°44' E 000°24'0 0.1
2015-Apr-14 15:27N 53°44' E 000°24'0 0.2
2015-Apr-14 14:33N 53°44' E 000°24'0 0.1
2015-Apr-14 13:33N 53°44' E 000°24'0 0.0
2015-Apr-14 12:33N 53°44' E 000°24'0 0.0
2015-Apr-14 11:33N 53°44' E 000°24'0 0.0
2015-Apr-14 10:30N 53°44' E 000°24'0 0.1
2015-Apr-14 09:33N 53°44' E 000°24'0 0.2
2015-Apr-14 08:27N 53°44' E 000°24'0 0.1
2015-Apr-14 07:33N 53°44' E 000°24'0 0.0
2015-Apr-14 06:27N 53°44' E 000°24'0 0.0
2015-Apr-14 05:33N 53°44' E 000°24'0 0.0
2015-Apr-14 04:30N 53°44' E 000°24'0 0.0
2015-Apr-14 03:21N 53°44' E 000°24'0 0.1
2015-Apr-14 02:33N 53°44' E 000°24'0 0.1
2015-Apr-14 01:33N 53°44' E 000°24'0 0.0
2015-Apr-14 00:34N 53°44' E 000°24'0 0.0
2015-Apr-13 23:30N 53°44' E 000°24'0 0.0
2015-Apr-13 22:27N 53°44' E 000°24'0 0.1
2015-Apr-13 21:33N 53°44' E 000°24'0 0.3
2015-Apr-13 20:33N 53°44' E 000°24'0 0.0
2015-Apr-13 19:30N 53°44' E 000°24'0 0.0
2015-Apr-13 18:33N 53°44' E 000°24'0 0.0
2015-Apr-13 17:18N 53°44' E 000°24'0 0.0
2015-Apr-13 16:27N 53°44' E 000°24'0 0.0
2015-Apr-13 15:21N 53°44' E 000°24'0 0.0
2015-Apr-13 14:30N 53°44' E 000°24'0 0.0
2015-Apr-13 13:33N 53°44' E 000°24'0 0.2
2015-Apr-13 12:27N 53°44' E 000°24'0 0.0
2015-Apr-13 11:30N 53°44' E 000°24'0 0.0
2015-Apr-13 10:33N 53°44' E 000°24'0 0.0
2015-Apr-13 09:30N 53°44' E 000°24'0 0.0
2015-Apr-13 08:30N 53°44' E 000°24'0 0.1
2015-Apr-13 07:33N 53°44' E 000°25'0 0.2
2015-Apr-13 06:33N 53°44' E 000°24'0 0.0
2015-Apr-13 05:21N 53°44' E 000°24'0 0.0
2015-Apr-13 04:33N 53°44' E 000°24'0 0.0
2015-Apr-13 03:30N 53°44' E 000°24'0 0.1
2015-Apr-13 02:33N 53°44' E 000°24'0 0.1
2015-Apr-13 01:18N 53°44' E 000°25'0 0.0
2015-Apr-13 00:33N 53°44' E 000°25'0 0.0
2015-Apr-12 23:33N 53°44' E 000°24'0 0.0
2015-Apr-12 22:33N 53°44' E 000°24'0 0.0
2015-Apr-12 21:30N 53°44' E 000°24'0 0.0
2015-Apr-12 20:33N 53°44' E 000°24'0 0.0
2015-Apr-12 19:33N 53°44' E 000°24'0 0.0
2015-Apr-12 18:30N 53°44' E 000°24'0 0.1
2015-Apr-12 17:27N 53°44' E 000°25'0 0.1
2015-Apr-12 16:30N 53°44' E 000°24'0 0.1
2015-Apr-12 15:24N 53°44' E 000°24'0 0.0
2015-Apr-12 14:33N 53°44' E 000°24'0 0.0
2015-Apr-12 13:27N 53°44' E 000°24'0 0.0
2015-Apr-12 12:24N 53°44' E 000°24'0 0.1
2015-Apr-12 11:18N 53°44' E 000°24'0 0.2
2015-Apr-12 10:30N 53°44' E 000°24'0 0.1
2015-Apr-12 09:30N 53°44' E 000°24'0 0.0
2015-Apr-12 08:30N 53°44' E 000°24'0 0.1
2015-Apr-12 07:30N 53°44' E 000°24'0 0.1
2015-Apr-12 06:27N 53°44' E 000°24'0 0.1
2015-Apr-12 05:27N 53°44' E 000°24'0 0.0
2015-Apr-12 04:30N 53°44' E 000°24'0 0.0
2015-Apr-12 03:33N 53°44' E 000°24'0 0.0
2015-Apr-12 02:33N 53°44' E 000°24'0 0.1
2015-Apr-12 01:33N 53°44' E 000°24'0 0.1
2015-Apr-12 00:24N 53°44' E 000°24'0 0.1
2015-Apr-11 23:18N 53°44' E 000°25'0 0.1
2015-Apr-11 22:33N 53°44' E 000°24'0 0.0
2015-Apr-11 21:33N 53°44' E 000°24'0 0.0
2015-Apr-11 20:27N 53°44' E 000°24'0 0.0
2015-Apr-11 19:33N 53°44' E 000°24'0 0.1
2015-Apr-11 18:30N 53°44' E 000°24'0 0.1
2015-Apr-11 17:33N 53°44' E 000°25'0 0.1
2015-Apr-11 16:27N 53°44' E 000°24'0 0.1
2015-Apr-11 15:33N 53°44' E 000°24'0 0.1
2015-Apr-11 14:30N 53°44' E 000°24'0 0.1
2015-Apr-11 13:33N 53°44' E 000°24'0 0.1
2015-Apr-11 12:33N 53°44' E 000°25'0 0.1
2015-Apr-11 11:33N 53°44' E 000°25'0 0.1
2015-Apr-11 10:30N 53°44' E 000°24'0 0.0
2015-Apr-11 09:33N 53°44' E 000°24'0 0.1
2015-Apr-11 08:30N 53°44' E 000°24'0 0.0
2015-Apr-11 07:30N 53°44' E 000°24'0 0.0
2015-Apr-11 06:27N 53°44' E 000°24'0 0.2
2015-Apr-11 05:21N 53°44' E 000°24'2 3.0
2015-Apr-11 04:33N 53°46' E 000°22'8 8.4
2015-Apr-11 03:33N 53°54' E 000°19'10 9.9
2015-Apr-11 02:33N 54°04' E 000°17'10 9.7
2015-Apr-11 01:33N 54°13' E 000°16'10 9.9
2015-Apr-11 00:34N 54°23' E 000°14'1010.0
2015-Apr-10 23:33N 54°33' E 000°10'1010.3
2015-Apr-10 22:33N 54°43' E 000°06'1110.7
2015-Apr-10 21:33N 54°53' E 000°01'1110.8
2015-Apr-10 20:33N 55°04' W 000°03'1110.8
2015-Apr-10 19:30N 55°15' W 000°08'1010.9
2015-Apr-10 18:33N 55°25' W 000°13'11810.8
2015-Apr-10 07:33N 57°20' W 001°06'1110.7
2015-Apr-10 06:33N 57°30' W 001°11'1111.5
2015-Apr-10 05:33N 57°41' W 001°16'1411.8
2015-Apr-10 04:25N 57°54' W 001°23'4912.1
2015-Apr-10 00:23N 58°27' W 002°31'1012.6
2015-Apr-09 23:33N 58°34' W 002°45'1514.9
2015-Apr-09 22:33N 58°43' W 003°08'1212.2
2015-Apr-09 21:33N 58°44' W 003°32'1211.6
2015-Apr-09 20:33N 58°45' W 003°54'1111.5
2015-Apr-09 19:33N 58°45' W 004°16'3611.0
2015-Apr-09 16:15N 58°45' W 005°26'810.9
2015-Apr-09 15:33N 58°45' W 005°41'  
Track history (hours):
 
Tides and Currents Weather Stations Pressure Air Temp Water Temp Dewpoint Dewpoint Depression Visibility Wind Speed Wind Dir Waves Ship Positions

As Victoria

Last reported at 2015-Apr-19 10:33 UTC. Time now 2015-Apr-19 11:03 UTC.
Position N 53°38' W 000°12'.

Length 190 m; draft 11.5 m.

MMSI: 636091769.

Date/timePositionNaut miles runAvg speedWind from/ knotsBaromVisibWave heightAir tempDewpointWater temp
2015-Apr-19 10:33N 53°38' W 000°12'0 0.0
2015-Apr-19 09:33N 53°38' W 000°12'0 0.0
2015-Apr-19 08:33N 53°38' W 000°12'0 0.0
2015-Apr-19 07:33N 53°38' W 000°12'0 0.0
2015-Apr-19 06:33N 53°38' W 000°12'0 0.0
2015-Apr-19 05:33N 53°38' W 000°12'0 0.0
2015-Apr-19 04:27N 53°38' W 000°12'0 0.0
2015-Apr-19 03:33N 53°38' W 000°12'0 0.0
2015-Apr-19 02:33N 53°38' W 000°12'0 0.0
2015-Apr-19 01:33N 53°38' W 000°12'0 0.0
2015-Apr-19 00:33N 53°38' W 000°12'0 0.0
2015-Apr-18 23:33N 53°38' W 000°12'0 0.0
2015-Apr-18 22:33N 53°38' W 000°12'0 0.0
2015-Apr-18 21:33N 53°38' W 000°12'0 0.0
2015-Apr-18 20:33N 53°38' W 000°12'0 0.0
2015-Apr-18 19:33N 53°38' W 000°12'0 0.0
2015-Apr-18 18:33N 53°38' W 000°12'0 0.2
2015-Apr-18 17:33N 53°38' W 000°12'5 5.0
2015-Apr-18 16:34N 53°37' W 000°04'8 8.3
2015-Apr-18 15:33N 53°33' E 000°09'9 9.3
2015-Apr-18 14:33N 53°39' E 000°21'4 4.0
2015-Apr-18 13:34N 53°42' E 000°24'1 1.0
2015-Apr-18 12:18N 53°44' E 000°24'0 0.2
2015-Apr-18 11:33N 53°44' E 000°24'0 0.0
2015-Apr-18 10:33N 53°44' E 000°24'0 0.0
2015-Apr-18 09:21N 53°44' E 000°24'0 0.0
2015-Apr-18 08:33N 53°44' E 000°24'0 0.0
2015-Apr-18 07:24N 53°44' E 000°24'0 0.2
2015-Apr-18 06:21N 53°44' E 000°24'0 0.1
2015-Apr-18 05:27N 53°44' E 000°24'0 0.0
2015-Apr-18 04:33N 53°44' E 000°24'0 0.0
2015-Apr-18 03:30N 53°44' E 000°24'0 0.0
2015-Apr-18 02:30N 53°44' E 000°24'0 0.0
2015-Apr-18 01:30N 53°44' E 000°24'0 0.1
2015-Apr-18 00:33N 53°44' E 000°24'0 0.2
2015-Apr-17 23:30N 53°44' E 000°24'0 0.1
2015-Apr-17 22:33N 53°44' E 000°24'0 0.0
2015-Apr-17 21:21N 53°44' E 000°24'0 0.0
2015-Apr-17 20:06N 53°44' E 000°24'0 0.0
2015-Apr-17 19:09N 53°44' E 000°24'0 0.1
2015-Apr-17 18:33N 53°44' E 000°24'0 0.2
2015-Apr-17 17:33N 53°44' E 000°24'0 0.0
2015-Apr-17 16:30N 53°44' E 000°24'0 0.0
2015-Apr-17 15:27N 53°44' E 000°24'0 0.0
2015-Apr-17 14:34N 53°44' E 000°24'0 0.0
2015-Apr-17 13:27N 53°44' E 000°24'0 0.0
2015-Apr-17 12:30N 53°44' E 000°24'0 0.1
2015-Apr-17 11:30N 53°44' E 000°24'0 0.1
2015-Apr-17 10:30N 53°44' E 000°24'0 0.0
2015-Apr-17 09:33N 53°44' E 000°24'0 0.0
2015-Apr-17 08:33N 53°44' E 000°24'0 0.0
2015-Apr-17 07:33N 53°44' E 000°24'0 0.0
2015-Apr-17 06:33N 53°44' E 000°24'0 0.2
2015-Apr-17 05:33N 53°44' E 000°24'0 0.0
2015-Apr-17 04:30N 53°44' E 000°24'0 0.0
2015-Apr-17 03:24N 53°44' E 000°24'0 0.0
2015-Apr-17 02:33N 53°44' E 000°24'0 0.0
2015-Apr-17 01:33N 53°44' E 000°24'0 0.0
2015-Apr-17 00:33N 53°44' E 000°24'0 0.1
2015-Apr-16 23:34N 53°44' E 000°24'0 0.2
2015-Apr-16 22:33N 53°44' E 000°24'0 0.0
2015-Apr-16 21:33N 53°44' E 000°24'0 0.0
2015-Apr-16 20:33N 53°44' E 000°24'0 0.0
2015-Apr-16 19:27N 53°44' E 000°24'0 0.0
2015-Apr-16 18:33N 53°44' E 000°24'0 0.1
2015-Apr-16 17:21N 53°44' E 000°24'0 0.3
2015-Apr-16 16:33N 53°44' E 000°24'0 0.0
2015-Apr-16 15:33N 53°44' E 000°24'0 0.0
2015-Apr-16 14:33N 53°44' E 000°24'0 0.0
2015-Apr-16 13:33N 53°44' E 000°24'0 0.0
2015-Apr-16 12:33N 53°44' E 000°24'0 0.1
2015-Apr-16 11:27N 53°44' E 000°24'0 0.2
2015-Apr-16 10:27N 53°44' E 000°24'0 0.0
2015-Apr-16 09:27N 53°44' E 000°24'0 0.0
2015-Apr-16 08:30N 53°44' E 000°24'0 0.0
2015-Apr-16 07:30N 53°44' E 000°24'0 0.0
2015-Apr-16 06:33N 53°44' E 000°24'0 0.0
2015-Apr-16 05:33N 53°44' E 000°24'0 0.2
2015-Apr-16 04:30N 53°44' E 000°24'0 0.1
2015-Apr-16 03:33N 53°44' E 000°24'0 0.0
2015-Apr-16 02:30N 53°44' E 000°24'0 0.0
2015-Apr-16 01:27N 53°44' E 000°24'0 0.0
2015-Apr-16 00:33N 53°44' E 000°24'0 0.0
2015-Apr-15 23:30N 53°44' E 000°24'0 0.2
2015-Apr-15 22:30N 53°44' E 000°24'0 0.1
2015-Apr-15 21:27N 53°44' E 000°24'0 0.0
2015-Apr-15 20:24N 53°44' E 000°24'0 0.0
2015-Apr-15 19:30N 53°44' E 000°24'0 0.1
2015-Apr-15 18:30N 53°44' E 000°24'0 0.0
2015-Apr-15 17:30N 53°44' E 000°24'0 0.1
2015-Apr-15 16:33N 53°44' E 000°24'0 0.1
2015-Apr-15 15:18N 53°44' E 000°24'0 0.0
2015-Apr-15 14:27N 53°44' E 000°24'0 0.0
2015-Apr-15 13:27N 53°44' E 000°24'0 0.0
2015-Apr-15 12:30N 53°44' E 000°24'0 0.0
2015-Apr-15 11:15N 53°44' E 000°24'0 0.1
2015-Apr-15 10:34N 53°44' E 000°24'0 0.2
2015-Apr-15 09:15N 53°44' E 000°24'0 0.1
2015-Apr-15 08:24N 53°44' E 000°24'0 0.0
2015-Apr-15 07:12N 53°44' E 000°24'0 0.0
2015-Apr-15 06:33N 53°44' E 000°24'0 0.0
2015-Apr-15 05:24N 53°44' E 000°24'0 0.1
2015-Apr-15 04:27N 53°44' E 000°24'0 0.1
2015-Apr-15 03:24N 53°44' E 000°24'0 0.1
2015-Apr-15 02:30N 53°44' E 000°24'0 0.0
2015-Apr-15 01:33N 53°44' E 000°24'0 0.0
2015-Apr-15 00:24N 53°44' E 000°24'0 0.0
2015-Apr-14 23:30N 53°44' E 000°24'0 0.1
2015-Apr-14 22:33N 53°44' E 000°24'0 0.2
2015-Apr-14 21:30N 53°44' E 000°24'0 0.1
2015-Apr-14 20:21N 53°44' E 000°24'0 0.0
2015-Apr-14 19:24N 53°44' E 000°24'0 0.0
2015-Apr-14 18:24N 53°44' E 000°24'0 0.0
2015-Apr-14 17:24N 53°44' E 000°24'0 0.0
2015-Apr-14 16:30N 53°44' E 000°24'0 0.1
2015-Apr-14 15:27N 53°44' E 000°24'0 0.2
2015-Apr-14 14:33N 53°44' E 000°24'0 0.1
2015-Apr-14 13:33N 53°44' E 000°24'0 0.0
2015-Apr-14 12:33N 53°44' E 000°24'0 0.0
2015-Apr-14 11:33N 53°44' E 000°24'0 0.0
2015-Apr-14 10:30N 53°44' E 000°24'0 0.1
2015-Apr-14 09:33N 53°44' E 000°24'0 0.2
2015-Apr-14 08:27N 53°44' E 000°24'0 0.1
2015-Apr-14 07:33N 53°44' E 000°24'0 0.0
2015-Apr-14 06:27N 53°44' E 000°24'0 0.0
2015-Apr-14 05:33N 53°44' E 000°24'0 0.0
2015-Apr-14 04:30N 53°44' E 000°24'0 0.0
2015-Apr-14 03:21N 53°44' E 000°24'0 0.1
2015-Apr-14 02:33N 53°44' E 000°24'0 0.1
2015-Apr-14 01:33N 53°44' E 000°24'0 0.0
2015-Apr-14 00:34N 53°44' E 000°24'0 0.0
2015-Apr-13 23:30N 53°44' E 000°24'0 0.0
2015-Apr-13 22:27N 53°44' E 000°24'0 0.1
2015-Apr-13 21:33N 53°44' E 000°24'0 0.3
2015-Apr-13 20:33N 53°44' E 000°24'0 0.0
2015-Apr-13 19:30N 53°44' E 000°24'0 0.0
2015-Apr-13 18:33N 53°44' E 000°24'0 0.0
2015-Apr-13 17:18N 53°44' E 000°24'0 0.0
2015-Apr-13 16:27N 53°44' E 000°24'0 0.0
2015-Apr-13 15:21N 53°44' E 000°24'0 0.0
2015-Apr-13 14:30N 53°44' E 000°24'0 0.0
2015-Apr-13 13:33N 53°44' E 000°24'0 0.2
2015-Apr-13 12:27N 53°44' E 000°24'0 0.0
2015-Apr-13 11:30N 53°44' E 000°24'0 0.0
2015-Apr-13 10:33N 53°44' E 000°24'0 0.0
2015-Apr-13 09:30N 53°44' E 000°24'0 0.0
2015-Apr-13 08:30N 53°44' E 000°24'0 0.1
2015-Apr-13 07:33N 53°44' E 000°25'0 0.2
2015-Apr-13 06:33N 53°44' E 000°24'0 0.0
2015-Apr-13 05:21N 53°44' E 000°24'0 0.0
2015-Apr-13 04:33N 53°44' E 000°24'0 0.0
2015-Apr-13 03:30N 53°44' E 000°24'0 0.1
2015-Apr-13 02:33N 53°44' E 000°24'0 0.1
2015-Apr-13 01:18N 53°44' E 000°25'0 0.0
2015-Apr-13 00:33N 53°44' E 000°25'0 0.0
2015-Apr-12 23:33N 53°44' E 000°24'0 0.0
2015-Apr-12 22:33N 53°44' E 000°24'0 0.0
2015-Apr-12 21:30N 53°44' E 000°24'0 0.0
2015-Apr-12 20:33N 53°44' E 000°24'0 0.0
2015-Apr-12 19:33N 53°44' E 000°24'0 0.0
2015-Apr-12 18:30N 53°44' E 000°24'0 0.1
2015-Apr-12 17:27N 53°44' E 000°25'0 0.1
2015-Apr-12 16:30N 53°44' E 000°24'0 0.1
2015-Apr-12 15:24N 53°44' E 000°24'0 0.0
2015-Apr-12 14:33N 53°44' E 000°24'0 0.0
2015-Apr-12 13:27N 53°44' E 000°24'0 0.0
2015-Apr-12 12:24N 53°44' E 000°24'0 0.1
2015-Apr-12 11:18N 53°44' E 000°24'0 0.2
2015-Apr-12 10:30N 53°44' E 000°24'0 0.1
2015-Apr-12 09:30N 53°44' E 000°24'0 0.0
2015-Apr-12 08:30N 53°44' E 000°24'0 0.1
2015-Apr-12 07:30N 53°44' E 000°24'0 0.1
2015-Apr-12 06:27N 53°44' E 000°24'0 0.1
2015-Apr-12 05:27N 53°44' E 000°24'0 0.0
2015-Apr-12 04:30N 53°44' E 000°24'0 0.0
2015-Apr-12 03:33N 53°44' E 000°24'0 0.0
2015-Apr-12 02:33N 53°44' E 000°24'0 0.1
2015-Apr-12 01:33N 53°44' E 000°24'0 0.1
2015-Apr-12 00:24N 53°44' E 000°24'0 0.1
2015-Apr-11 23:18N 53°44' E 000°25'0 0.1
2015-Apr-11 22:33N 53°44' E 000°24'0 0.0
2015-Apr-11 21:33N 53°44' E 000°24'0 0.0
2015-Apr-11 20:27N 53°44' E 000°24'0 0.0
2015-Apr-11 19:33N 53°44' E 000°24'0 0.1
2015-Apr-11 18:30N 53°44' E 000°24'0 0.1
2015-Apr-11 17:33N 53°44' E 000°25'0 0.1
2015-Apr-11 16:27N 53°44' E 000°24'0 0.1
2015-Apr-11 15:33N 53°44' E 000°24'0 0.1
2015-Apr-11 14:30N 53°44' E 000°24'0 0.1
2015-Apr-11 13:33N 53°44' E 000°24'0 0.1
2015-Apr-11 12:33N 53°44' E 000°25'0 0.1
2015-Apr-11 11:33N 53°44' E 000°25'0 0.1
2015-Apr-11 10:30N 53°44' E 000°24'0 0.0
2015-Apr-11 09:33N 53°44' E 000°24'0 0.1
2015-Apr-11 08:30N 53°44' E 000°24'0 0.0
2015-Apr-11 07:30N 53°44' E 000°24'0 0.0
2015-Apr-11 06:27N 53°44' E 000°24'0 0.2
2015-Apr-11 05:21N 53°44' E 000°24'2 3.0
2015-Apr-11 04:33N 53°46' E 000°22'8 8.4
2015-Apr-11 03:33N 53°54' E 000°19'10 9.9
2015-Apr-11 02:33N 54°04' E 000°17'10 9.7
2015-Apr-11 01:33N 54°13' E 000°16'10 9.9
2015-Apr-11 00:34N 54°23' E 000°14'1010.0
2015-Apr-10 23:33N 54°33' E 000°10'1010.3
2015-Apr-10 22:33N 54°43' E 000°06'1110.7
2015-Apr-10 21:33N 54°53' E 000°01'1110.8
2015-Apr-10 20:33N 55°04' W 000°03'1110.8
2015-Apr-10 19:30N 55°15' W 000°08'1010.9
2015-Apr-10 18:33N 55°25' W 000°13'11810.8
2015-Apr-10 07:33N 57°20' W 001°06'1110.7
2015-Apr-10 06:33N 57°30' W 001°11'1111.5
2015-Apr-10 05:33N 57°41' W 001°16'1411.8
2015-Apr-10 04:25N 57°54' W 001°23'4912.1
2015-Apr-10 00:23N 58°27' W 002°31'1012.6
2015-Apr-09 23:33N 58°34' W 002°45'1514.9
2015-Apr-09 22:33N 58°43' W 003°08'1212.2
2015-Apr-09 21:33N 58°44' W 003°32'1211.6
2015-Apr-09 20:33N 58°45' W 003°54'1111.5
2015-Apr-09 19:33N 58°45' W 004°16'3611.0
2015-Apr-09 16:15N 58°45' W 005°26'810.9
2015-Apr-09 15:33N 58°45' W 005°41'  

Dump ship's entire track history